sensor_id;sensor_type;location;lat;lon;timestamp;temperature;humidity
10057;DHT22;5068;51.286;7.518;2023-04-03T00:00:09;0.70;59.40
10057;DHT22;5068;51.286;7.518;2023-04-03T00:01:43;0.60;59.30
10057;DHT22;5068;51.286;7.518;2023-04-03T00:03:22;0.60;59.40
10057;DHT22;5068;51.286;7.518;2023-04-03T00:04:54;0.60;59.40
10057;DHT22;5068;51.286;7.518;2023-04-03T00:06:27;0.60;59.40
10057;DHT22;5068;51.286;7.518;2023-04-03T00:08:01;0.60;59.40
10057;DHT22;5068;51.286;7.518;2023-04-03T00:09:34;0.60;59.50
10057;DHT22;5068;51.286;7.518;2023-04-03T00:11:08;0.60;59.50
10057;DHT22;5068;51.286;7.518;2023-04-03T00:12:41;0.60;59.40
10057;DHT22;5068;51.286;7.518;2023-04-03T00:14:14;0.60;59.50
10057;DHT22;5068;51.286;7.518;2023-04-03T00:15:49;0.60;59.50
10057;DHT22;5068;51.286;7.518;2023-04-03T00:17:22;0.60;59.60
10057;DHT22;5068;51.286;7.518;2023-04-03T00:18:55;0.60;59.50
10057;DHT22;5068;51.286;7.518;2023-04-03T00:20:29;0.60;59.50
10057;DHT22;5068;51.286;7.518;2023-04-03T00:22:01;0.50;59.50
10057;DHT22;5068;51.286;7.518;2023-04-03T00:23:35;0.50;59.40
10057;DHT22;5068;51.286;7.518;2023-04-03T00:25:09;0.50;59.50
10057;DHT22;5068;51.286;7.518;2023-04-03T00:26:42;0.50;59.50
10057;DHT22;5068;51.286;7.518;2023-04-03T00:28:16;0.50;59.50
10057;DHT22;5068;51.286;7.518;2023-04-03T00:29:49;0.50;59.50
10057;DHT22;5068;51.286;7.518;2023-04-03T00:31:22;0.50;59.60
10057;DHT22;5068;51.286;7.518;2023-04-03T00:32:57;0.50;59.60
10057;DHT22;5068;51.286;7.518;2023-04-03T00:34:31;0.50;59.50
10057;DHT22;5068;51.286;7.518;2023-04-03T00:36:08;0.40;59.50
10057;DHT22;5068;51.286;7.518;2023-04-03T00:37:42;0.50;59.60
10057;DHT22;5068;51.286;7.518;2023-04-03T00:39:17;0.40;59.50
10057;DHT22;5068;51.286;7.518;2023-04-03T00:40:50;0.40;59.50
10057;DHT22;5068;51.286;7.518;2023-04-03T00:42:23;0.40;59.50
10057;DHT22;5068;51.286;7.518;2023-04-03T00:43:57;0.40;59.60
10057;DHT22;5068;51.286;7.518;2023-04-03T00:45:33;0.40;59.60
10057;DHT22;5068;51.286;7.518;2023-04-03T00:47:11;0.40;59.60
10057;DHT22;5068;51.286;7.518;2023-04-03T00:48:48;0.40;59.60
10057;DHT22;5068;51.286;7.518;2023-04-03T00:50:22;0.40;59.60
10057;DHT22;5068;51.286;7.518;2023-04-03T00:51:55;0.30;59.40
10057;DHT22;5068;51.286;7.518;2023-04-03T00:53:34;0.30;59.40
10057;DHT22;5068;51.286;7.518;2023-04-03T00:55:10;0.30;59.40
10057;DHT22;5068;51.286;7.518;2023-04-03T00:56:43;0.30;59.40
10057;DHT22;5068;51.286;7.518;2023-04-03T00:58:19;0.30;59.40
10057;DHT22;5068;51.286;7.518;2023-04-03T01:00:01;0.30;59.40
10057;DHT22;5068;51.286;7.518;2023-04-03T01:01:38;0.30;59.50
10057;DHT22;5068;51.286;7.518;2023-04-03T01:03:13;0.30;59.50
10057;DHT22;5068;51.286;7.518;2023-04-03T01:04:46;0.20;59.40
10057;DHT22;5068;51.286;7.518;2023-04-03T01:06:23;0.20;59.50
10057;DHT22;5068;51.286;7.518;2023-04-03T01:08:04;0.20;59.60
10057;DHT22;5068;51.286;7.518;2023-04-03T01:09:39;0.20;59.60
10057;DHT22;5068;51.286;7.518;2023-04-03T01:11:12;0.20;59.60
10057;DHT22;5068;51.286;7.518;2023-04-03T01:12:48;0.20;59.60
10057;DHT22;5068;51.286;7.518;2023-04-03T01:14:22;0.20;59.60
10057;DHT22;5068;51.286;7.518;2023-04-03T01:15:56;0.20;59.60
10057;DHT22;5068;51.286;7.518;2023-04-03T01:17:33;0.20;59.70
10057;DHT22;5068;51.286;7.518;2023-04-03T01:19:12;0.20;59.80
10057;DHT22;5068;51.286;7.518;2023-04-03T01:23:26;0.20;59.80
10057;DHT22;5068;51.286;7.518;2023-04-03T01:25:09;0.20;59.80
10057;DHT22;5068;51.286;7.518;2023-04-03T01:26:42;0.20;59.70
10057;DHT22;5068;51.286;7.518;2023-04-03T01:28:19;0.20;59.70
10057;DHT22;5068;51.286;7.518;2023-04-03T01:29:57;0.10;59.70
10057;DHT22;5068;51.286;7.518;2023-04-03T01:31:42;0.10;59.70
10057;DHT22;5068;51.286;7.518;2023-04-03T01:33:19;0.20;59.80
10057;DHT22;5068;51.286;7.518;2023-04-03T01:34:52;0.10;59.60
10057;DHT22;5068;51.286;7.518;2023-04-03T01:36:27;0.10;60.30
10057;DHT22;5068;51.286;7.518;2023-04-03T01:38:02;0.10;59.60
10057;DHT22;5068;51.286;7.518;2023-04-03T01:39:36;0.10;59.60
10057;DHT22;5068;51.286;7.518;2023-04-03T01:41:09;0.10;59.70
10057;DHT22;5068;51.286;7.518;2023-04-03T01:42:42;0.10;59.60
10057;DHT22;5068;51.286;7.518;2023-04-03T01:44:15;0.10;59.60
10057;DHT22;5068;51.286;7.518;2023-04-03T01:45:49;0.10;59.60
10057;DHT22;5068;51.286;7.518;2023-04-03T01:47:25;0.10;59.50
10057;DHT22;5068;51.286;7.518;2023-04-03T01:48:58;0.10;59.50
10057;DHT22;5068;51.286;7.518;2023-04-03T01:50:32;0.10;59.50
10057;DHT22;5068;51.286;7.518;2023-04-03T01:52:06;0.00;59.40
10057;DHT22;5068;51.286;7.518;2023-04-03T01:53:39;0.00;59.40
10057;DHT22;5068;51.286;7.518;2023-04-03T01:55:13;0.00;59.40
10057;DHT22;5068;51.286;7.518;2023-04-03T01:56:47;0.00;59.40
10057;DHT22;5068;51.286;7.518;2023-04-03T01:58:20;0.00;59.40
10057;DHT22;5068;51.286;7.518;2023-04-03T01:59:55;0.00;59.40
10057;DHT22;5068;51.286;7.518;2023-04-03T02:01:28;0.00;59.40
10057;DHT22;5068;51.286;7.518;2023-04-03T02:03:03;0.00;59.40
10057;DHT22;5068;51.286;7.518;2023-04-03T02:04:36;-0.10;59.40
10057;DHT22;5068;51.286;7.518;2023-04-03T02:06:09;-0.10;59.40
10057;DHT22;5068;51.286;7.518;2023-04-03T02:07:43;-0.10;60.20
10057;DHT22;5068;51.286;7.518;2023-04-03T02:09:16;-0.10;59.60
10057;DHT22;5068;51.286;7.518;2023-04-03T02:10:50;-0.10;59.70
10057;DHT22;5068;51.286;7.518;2023-04-03T02:12:24;-0.10;59.70
10057;DHT22;5068;51.286;7.518;2023-04-03T02:13:57;-0.10;59.70
10057;DHT22;5068;51.286;7.518;2023-04-03T02:15:31;-0.10;59.60
10057;DHT22;5068;51.286;7.518;2023-04-03T02:17:03;0.00;59.60
10057;DHT22;5068;51.286;7.518;2023-04-03T02:18:41;-0.10;59.60
10057;DHT22;5068;51.286;7.518;2023-04-03T02:20:14;-0.10;59.60
10057;DHT22;5068;51.286;7.518;2023-04-03T02:21:47;-0.10;59.70
10057;DHT22;5068;51.286;7.518;2023-04-03T02:23:20;-0.10;59.70
10057;DHT22;5068;51.286;7.518;2023-04-03T02:24:54;-0.10;59.70
10057;DHT22;5068;51.286;7.518;2023-04-03T02:26:27;-0.10;59.70
10057;DHT22;5068;51.286;7.518;2023-04-03T02:28:01;-0.10;59.70
10057;DHT22;5068;51.286;7.518;2023-04-03T02:29:35;-0.10;59.70
10057;DHT22;5068;51.286;7.518;2023-04-03T02:31:10;-0.10;59.60
10057;DHT22;5068;51.286;7.518;2023-04-03T02:32:45;-0.10;59.60
10057;DHT22;5068;51.286;7.518;2023-04-03T02:34:19;-0.10;59.50
10057;DHT22;5068;51.286;7.518;2023-04-03T02:35:54;-0.10;59.50
10057;DHT22;5068;51.286;7.518;2023-04-03T02:37:28;-0.20;59.50
10057;DHT22;5068;51.286;7.518;2023-04-03T02:39:02;-0.20;59.50
10057;DHT22;5068;51.286;7.518;2023-04-03T02:40:36;-0.20;59.60
10057;DHT22;5068;51.286;7.518;2023-04-03T02:42:10;-0.20;59.50
10057;DHT22;5068;51.286;7.518;2023-04-03T02:43:43;-0.20;59.60
10057;DHT22;5068;51.286;7.518;2023-04-03T02:45:16;-0.20;59.60
10057;DHT22;5068;51.286;7.518;2023-04-03T02:46:49;-0.20;59.60
10057;DHT22;5068;51.286;7.518;2023-04-03T02:48:21;-0.20;59.60
10057;DHT22;5068;51.286;7.518;2023-04-03T02:49:56;-0.20;59.70
10057;DHT22;5068;51.286;7.518;2023-04-03T02:51:29;-0.20;59.80
10057;DHT22;5068;51.286;7.518;2023-04-03T02:53:03;-0.20;59.90
10057;DHT22;5068;51.286;7.518;2023-04-03T02:54:36;-0.20;59.90
10057;DHT22;5068;51.286;7.518;2023-04-03T02:56:12;-0.30;59.70
10057;DHT22;5068;51.286;7.518;2023-04-03T02:57:45;-0.30;59.70
10057;DHT22;5068;51.286;7.518;2023-04-03T02:59:18;-0.20;59.70
10057;DHT22;5068;51.286;7.518;2023-04-03T03:00:52;-0.30;59.50
10057;DHT22;5068;51.286;7.518;2023-04-03T03:02:26;-0.30;59.50
10057;DHT22;5068;51.286;7.518;2023-04-03T03:04:00;-0.30;59.50
10057;DHT22;5068;51.286;7.518;2023-04-03T03:05:34;-0.30;59.50
10057;DHT22;5068;51.286;7.518;2023-04-03T03:07:08;-0.30;59.50
10057;DHT22;5068;51.286;7.518;2023-04-03T03:08:42;-0.30;59.50
10057;DHT22;5068;51.286;7.518;2023-04-03T03:10:16;-0.30;59.50
10057;DHT22;5068;51.286;7.518;2023-04-03T03:11:50;-0.30;59.50
10057;DHT22;5068;51.286;7.518;2023-04-03T03:13:24;-0.40;59.50
10057;DHT22;5068;51.286;7.518;2023-04-03T03:14:57;-0.40;59.40
10057;DHT22;5068;51.286;7.518;2023-04-03T03:16:30;-0.40;59.40
10057;DHT22;5068;51.286;7.518;2023-04-03T03:18:04;-0.40;59.40
10057;DHT22;5068;51.286;7.518;2023-04-03T03:19:36;-0.40;59.30
10057;DHT22;5068;51.286;7.518;2023-04-03T03:21:11;-0.40;59.30
10057;DHT22;5068;51.286;7.518;2023-04-03T03:22:44;-0.40;59.30
10057;DHT22;5068;51.286;7.518;2023-04-03T03:24:18;-0.40;59.30
10057;DHT22;5068;51.286;7.518;2023-04-03T03:25:55;-0.50;59.10
10057;DHT22;5068;51.286;7.518;2023-04-03T03:27:29;-0.50;59.20
10057;DHT22;5068;51.286;7.518;2023-04-03T03:29:02;-0.50;59.10
10057;DHT22;5068;51.286;7.518;2023-04-03T03:30:36;-0.50;59.10
10057;DHT22;5068;51.286;7.518;2023-04-03T03:32:10;-0.50;59.30
10057;DHT22;5068;51.286;7.518;2023-04-03T03:33:43;-0.50;59.40
10057;DHT22;5068;51.286;7.518;2023-04-03T03:35:16;-0.50;59.40
10057;DHT22;5068;51.286;7.518;2023-04-03T03:36:50;-0.50;59.50
10057;DHT22;5068;51.286;7.518;2023-04-03T03:38:24;-0.60;59.60
10057;DHT22;5068;51.286;7.518;2023-04-03T03:39:58;-0.50;59.80
10057;DHT22;5068;51.286;7.518;2023-04-03T03:41:31;-0.50;59.90
10057;DHT22;5068;51.286;7.518;2023-04-03T03:43:04;-0.60;59.80
10057;DHT22;5068;51.286;7.518;2023-04-03T03:44:37;-0.60;59.80
10057;DHT22;5068;51.286;7.518;2023-04-03T03:46:10;-0.60;59.80
10057;DHT22;5068;51.286;7.518;2023-04-03T03:47:43;-0.60;59.90
10057;DHT22;5068;51.286;7.518;2023-04-03T03:49:17;-0.60;59.80
10057;DHT22;5068;51.286;7.518;2023-04-03T03:50:50;-0.60;59.90
10057;DHT22;5068;51.286;7.518;2023-04-03T03:52:28;-0.60;59.90
10057;DHT22;5068;51.286;7.518;2023-04-03T03:54:02;-0.60;59.90
10057;DHT22;5068;51.286;7.518;2023-04-03T03:55:35;-0.70;60.00
10057;DHT22;5068;51.286;7.518;2023-04-03T03:57:10;-0.60;59.90
10057;DHT22;5068;51.286;7.518;2023-04-03T03:58:43;-0.70;59.90
10057;DHT22;5068;51.286;7.518;2023-04-03T04:00:17;-0.70;59.90
10057;DHT22;5068;51.286;7.518;2023-04-03T04:01:56;-0.70;60.00
10057;DHT22;5068;51.286;7.518;2023-04-03T04:03:30;-0.70;60.10
10057;DHT22;5068;51.286;7.518;2023-04-03T04:05:04;-0.70;60.20
10057;DHT22;5068;51.286;7.518;2023-04-03T04:06:37;-0.70;60.40
10057;DHT22;5068;51.286;7.518;2023-04-03T04:08:15;-0.70;60.40
10057;DHT22;5068;51.286;7.518;2023-04-03T04:09:49;-0.70;60.40
10057;DHT22;5068;51.286;7.518;2023-04-03T04:11:22;-0.70;60.40
10057;DHT22;5068;51.286;7.518;2023-04-03T04:12:58;-0.70;60.40
10057;DHT22;5068;51.286;7.518;2023-04-03T04:14:33;-0.70;60.40
10057;DHT22;5068;51.286;7.518;2023-04-03T04:16:07;-0.80;60.20
10057;DHT22;5068;51.286;7.518;2023-04-03T04:17:43;-0.80;60.30
10057;DHT22;5068;51.286;7.518;2023-04-03T04:19:16;-0.80;60.20
10057;DHT22;5068;51.286;7.518;2023-04-03T04:20:50;-0.80;60.10
10057;DHT22;5068;51.286;7.518;2023-04-03T04:22:23;-0.80;60.10
10057;DHT22;5068;51.286;7.518;2023-04-03T04:23:59;-0.80;60.10
10057;DHT22;5068;51.286;7.518;2023-04-03T04:25:32;-0.80;60.00
10057;DHT22;5068;51.286;7.518;2023-04-03T04:27:06;-0.80;60.00
10057;DHT22;5068;51.286;7.518;2023-04-03T04:28:39;-0.80;60.00
10057;DHT22;5068;51.286;7.518;2023-04-03T04:30:13;-0.80;59.90
10057;DHT22;5068;51.286;7.518;2023-04-03T04:31:49;-0.80;60.00
10057;DHT22;5068;51.286;7.518;2023-04-03T04:33:22;-0.80;59.90
10057;DHT22;5068;51.286;7.518;2023-04-03T04:34:55;-0.80;60.00
10057;DHT22;5068;51.286;7.518;2023-04-03T04:36:29;-0.80;60.00
10057;DHT22;5068;51.286;7.518;2023-04-03T04:38:03;-0.90;60.00
10057;DHT22;5068;51.286;7.518;2023-04-03T04:39:38;-0.90;60.10
10057;DHT22;5068;51.286;7.518;2023-04-03T04:41:11;-0.90;60.10
10057;DHT22;5068;51.286;7.518;2023-04-03T04:42:44;-0.90;60.30
10057;DHT22;5068;51.286;7.518;2023-04-03T04:44:18;-0.90;60.30
10057;DHT22;5068;51.286;7.518;2023-04-03T04:46:00;-0.90;60.40
10057;DHT22;5068;51.286;7.518;2023-04-03T04:47:37;-0.90;60.50
10057;DHT22;5068;51.286;7.518;2023-04-03T04:49:11;-0.90;60.50
10057;DHT22;5068;51.286;7.518;2023-04-03T04:50:44;-0.90;60.50
10057;DHT22;5068;51.286;7.518;2023-04-03T04:52:17;-0.90;60.70
10057;DHT22;5068;51.286;7.518;2023-04-03T04:53:50;-0.90;60.50
10057;DHT22;5068;51.286;7.518;2023-04-03T04:55:28;-1.00;60.50
10057;DHT22;5068;51.286;7.518;2023-04-03T04:57:01;-1.00;60.40
10057;DHT22;5068;51.286;7.518;2023-04-03T04:58:35;-1.00;60.40
10057;DHT22;5068;51.286;7.518;2023-04-03T05:00:09;-1.00;60.40
10057;DHT22;5068;51.286;7.518;2023-04-03T05:01:44;-1.00;60.30
10057;DHT22;5068;51.286;7.518;2023-04-03T05:03:20;-1.00;60.20
10057;DHT22;5068;51.286;7.518;2023-04-03T05:04:53;-1.00;60.10
10057;DHT22;5068;51.286;7.518;2023-04-03T05:06:31;-1.00;60.00
10057;DHT22;5068;51.286;7.518;2023-04-03T05:08:09;-1.00;60.00
10057;DHT22;5068;51.286;7.518;2023-04-03T05:09:44;-1.00;60.00
10057;DHT22;5068;51.286;7.518;2023-04-03T05:11:20;-1.00;60.00
10057;DHT22;5068;51.286;7.518;2023-04-03T05:12:56;-1.00;59.90
10057;DHT22;5068;51.286;7.518;2023-04-03T05:14:29;-1.00;59.80
10057;DHT22;5068;51.286;7.518;2023-04-03T05:16:07;-1.00;59.80
10057;DHT22;5068;51.286;7.518;2023-04-03T05:17:40;-1.00;59.80
10057;DHT22;5068;51.286;7.518;2023-04-03T05:19:17;-1.00;60.10
10057;DHT22;5068;51.286;7.518;2023-04-03T05:20:50;-1.00;59.60
10057;DHT22;5068;51.286;7.518;2023-04-03T05:22:24;-1.00;59.50
10057;DHT22;5068;51.286;7.518;2023-04-03T05:24:01;-1.10;59.40
10057;DHT22;5068;51.286;7.518;2023-04-03T05:25:37;-1.10;59.40
10057;DHT22;5068;51.286;7.518;2023-04-03T05:27:13;-1.10;59.50
10057;DHT22;5068;51.286;7.518;2023-04-03T05:28:50;-1.10;59.50
10057;DHT22;5068;51.286;7.518;2023-04-03T05:30:24;-1.10;59.60
10057;DHT22;5068;51.286;7.518;2023-04-03T05:31:57;-1.10;59.70
10057;DHT22;5068;51.286;7.518;2023-04-03T05:33:31;-1.10;59.80
10057;DHT22;5068;51.286;7.518;2023-04-03T05:35:06;-1.10;59.90
10057;DHT22;5068;51.286;7.518;2023-04-03T05:36:40;-1.10;60.10
10057;DHT22;5068;51.286;7.518;2023-04-03T05:38:14;-1.10;60.10
10057;DHT22;5068;51.286;7.518;2023-04-03T05:39:48;-1.10;60.10
10057;DHT22;5068;51.286;7.518;2023-04-03T05:41:22;-1.10;60.00
10057;DHT22;5068;51.286;7.518;2023-04-03T05:42:57;-1.10;60.10
10057;DHT22;5068;51.286;7.518;2023-04-03T05:44:33;-1.10;60.00
10057;DHT22;5068;51.286;7.518;2023-04-03T05:46:10;-1.10;60.00
10057;DHT22;5068;51.286;7.518;2023-04-03T05:47:46;-1.10;60.10
10057;DHT22;5068;51.286;7.518;2023-04-03T05:49:20;-1.10;60.10
10057;DHT22;5068;51.286;7.518;2023-04-03T05:50:53;-1.10;60.00
10057;DHT22;5068;51.286;7.518;2023-04-03T05:52:30;-1.10;60.20
10057;DHT22;5068;51.286;7.518;2023-04-03T05:54:11;-1.10;60.00
10057;DHT22;5068;51.286;7.518;2023-04-03T05:55:49;-1.10;59.90
10057;DHT22;5068;51.286;7.518;2023-04-03T05:57:23;-1.10;60.00
10057;DHT22;5068;51.286;7.518;2023-04-03T05:58:58;-1.10;60.00
10057;DHT22;5068;51.286;7.518;2023-04-03T06:00:31;-1.10;60.10
10057;DHT22;5068;51.286;7.518;2023-04-03T06:02:06;-1.10;60.20
10057;DHT22;5068;51.286;7.518;2023-04-03T06:03:40;-1.10;60.30
10057;DHT22;5068;51.286;7.518;2023-04-03T06:05:14;-1.10;60.20
10057;DHT22;5068;51.286;7.518;2023-04-03T06:06:49;-1.10;60.40
10057;DHT22;5068;51.286;7.518;2023-04-03T06:08:24;-1.10;60.50
10057;DHT22;5068;51.286;7.518;2023-04-03T06:09:57;-1.00;60.70
10057;DHT22;5068;51.286;7.518;2023-04-03T06:11:30;-1.10;60.70
10057;DHT22;5068;51.286;7.518;2023-04-03T06:13:04;-1.10;60.70
10057;DHT22;5068;51.286;7.518;2023-04-03T06:14:39;-1.10;60.90
10057;DHT22;5068;51.286;7.518;2023-04-03T06:16:12;-1.10;61.10
10057;DHT22;5068;51.286;7.518;2023-04-03T06:17:47;-1.10;61.30
10057;DHT22;5068;51.286;7.518;2023-04-03T06:19:21;-1.10;61.60
10057;DHT22;5068;51.286;7.518;2023-04-03T06:20:58;-1.10;61.60
10057;DHT22;5068;51.286;7.518;2023-04-03T06:22:32;-1.10;61.70
10057;DHT22;5068;51.286;7.518;2023-04-03T06:24:06;-1.10;61.70
10057;DHT22;5068;51.286;7.518;2023-04-03T06:25:40;-1.00;61.90
10057;DHT22;5068;51.286;7.518;2023-04-03T06:27:13;-1.00;62.00
10057;DHT22;5068;51.286;7.518;2023-04-03T06:28:47;-1.00;62.10
10057;DHT22;5068;51.286;7.518;2023-04-03T06:30:21;-1.00;62.30
10057;DHT22;5068;51.286;7.518;2023-04-03T06:31:55;-1.00;62.40
10057;DHT22;5068;51.286;7.518;2023-04-03T06:33:28;-1.00;62.40
10057;DHT22;5068;51.286;7.518;2023-04-03T06:35:02;-1.00;62.40
10057;DHT22;5068;51.286;7.518;2023-04-03T06:36:35;-1.00;62.50
10057;DHT22;5068;51.286;7.518;2023-04-03T06:38:09;-0.90;62.50
10057;DHT22;5068;51.286;7.518;2023-04-03T06:39:43;-0.90;62.60
10057;DHT22;5068;51.286;7.518;2023-04-03T06:41:17;-0.90;62.60
10057;DHT22;5068;51.286;7.518;2023-04-03T06:42:50;-0.90;62.60
10057;DHT22;5068;51.286;7.518;2023-04-03T06:44:24;-0.80;63.70
10057;DHT22;5068;51.286;7.518;2023-04-03T06:45:59;-0.80;62.90
10057;DHT22;5068;51.286;7.518;2023-04-03T06:47:32;-0.80;62.80
10057;DHT22;5068;51.286;7.518;2023-04-03T06:49:05;-0.80;62.80
10057;DHT22;5068;51.286;7.518;2023-04-03T06:50:40;-0.70;62.80
10057;DHT22;5068;51.286;7.518;2023-04-03T06:52:14;-0.70;62.70
10057;DHT22;5068;51.286;7.518;2023-04-03T06:53:47;-0.70;62.60
10057;DHT22;5068;51.286;7.518;2023-04-03T06:55:23;-0.70;62.60
10057;DHT22;5068;51.286;7.518;2023-04-03T06:56:57;-0.60;62.50
10057;DHT22;5068;51.286;7.518;2023-04-03T06:58:30;-0.60;62.50
10057;DHT22;5068;51.286;7.518;2023-04-03T07:00:04;-0.60;62.60
10057;DHT22;5068;51.286;7.518;2023-04-03T07:01:40;-0.60;62.70
10057;DHT22;5068;51.286;7.518;2023-04-03T07:03:14;-0.50;62.90
10057;DHT22;5068;51.286;7.518;2023-04-03T07:04:48;-0.50;62.90
10057;DHT22;5068;51.286;7.518;2023-04-03T07:06:21;-0.50;62.70
10057;DHT22;5068;51.286;7.518;2023-04-03T07:07:55;-0.40;63.00
10057;DHT22;5068;51.286;7.518;2023-04-03T07:09:28;-0.40;63.00
10057;DHT22;5068;51.286;7.518;2023-04-03T07:11:01;-0.40;63.20
10057;DHT22;5068;51.286;7.518;2023-04-03T07:12:34;-0.30;63.60
10057;DHT22;5068;51.286;7.518;2023-04-03T07:14:07;-0.30;63.90
10057;DHT22;5068;51.286;7.518;2023-04-03T07:15:40;-0.20;64.20
10057;DHT22;5068;51.286;7.518;2023-04-03T07:17:15;-0.20;64.50
10057;DHT22;5068;51.286;7.518;2023-04-03T07:18:48;-0.10;64.80
10057;DHT22;5068;51.286;7.518;2023-04-03T07:20:21;-0.10;64.90
10057;DHT22;5068;51.286;7.518;2023-04-03T07:21:55;0.00;65.00
10057;DHT22;5068;51.286;7.518;2023-04-03T07:23:28;0.10;65.10
10057;DHT22;5068;51.286;7.518;2023-04-03T07:25:01;0.10;65.10
10057;DHT22;5068;51.286;7.518;2023-04-03T07:26:35;0.20;65.10
10057;DHT22;5068;51.286;7.518;2023-04-03T07:28:08;0.30;65.10
10057;DHT22;5068;51.286;7.518;2023-04-03T07:29:41;0.40;65.10
10057;DHT22;5068;51.286;7.518;2023-04-03T07:31:16;0.40;65.00
10057;DHT22;5068;51.286;7.518;2023-04-03T07:32:51;0.50;65.10
10057;DHT22;5068;51.286;7.518;2023-04-03T07:34:25;0.60;65.10
10057;DHT22;5068;51.286;7.518;2023-04-03T07:35:58;0.70;65.00
10057;DHT22;5068;51.286;7.518;2023-04-03T07:37:32;0.80;65.00
10057;DHT22;5068;51.286;7.518;2023-04-03T07:39:05;0.80;64.90
10057;DHT22;5068;51.286;7.518;2023-04-03T07:40:39;0.90;64.90
10057;DHT22;5068;51.286;7.518;2023-04-03T07:42:12;1.00;64.80
10057;DHT22;5068;51.286;7.518;2023-04-03T07:43:46;1.00;64.60
10057;DHT22;5068;51.286;7.518;2023-04-03T07:45:21;1.10;64.50
10057;DHT22;5068;51.286;7.518;2023-04-03T07:46:55;1.20;64.00
10057;DHT22;5068;51.286;7.518;2023-04-03T07:48:30;1.20;63.90
10057;DHT22;5068;51.286;7.518;2023-04-03T07:50:03;1.30;63.90
10057;DHT22;5068;51.286;7.518;2023-04-03T07:51:37;1.40;63.80
10057;DHT22;5068;51.286;7.518;2023-04-03T07:53:11;1.50;63.60
10057;DHT22;5068;51.286;7.518;2023-04-03T07:54:44;1.60;63.60
10057;DHT22;5068;51.286;7.518;2023-04-03T07:56:17;1.70;63.40
10057;DHT22;5068;51.286;7.518;2023-04-03T07:57:52;1.70;62.80
10057;DHT22;5068;51.286;7.518;2023-04-03T07:59:25;1.80;62.40
10057;DHT22;5068;51.286;7.518;2023-04-03T08:00:58;1.90;62.00
10057;DHT22;5068;51.286;7.518;2023-04-03T08:02:31;2.00;61.70
10057;DHT22;5068;51.286;7.518;2023-04-03T08:04:06;2.10;61.60
10057;DHT22;5068;51.286;7.518;2023-04-03T08:05:41;2.20;61.20
10057;DHT22;5068;51.286;7.518;2023-04-03T08:07:15;2.30;61.20
10057;DHT22;5068;51.286;7.518;2023-04-03T08:08:48;2.40;61.00
10057;DHT22;5068;51.286;7.518;2023-04-03T08:10:21;2.50;60.50
10057;DHT22;5068;51.286;7.518;2023-04-03T08:11:54;2.60;60.20
10057;DHT22;5068;51.286;7.518;2023-04-03T08:13:29;2.70;60.10
10057;DHT22;5068;51.286;7.518;2023-04-03T08:15:04;2.70;59.50
10057;DHT22;5068;51.286;7.518;2023-04-03T08:16:38;2.90;59.50
10057;DHT22;5068;51.286;7.518;2023-04-03T08:18:11;2.90;59.20
10057;DHT22;5068;51.286;7.518;2023-04-03T08:19:45;3.00;59.00
10057;DHT22;5068;51.286;7.518;2023-04-03T08:21:18;3.10;58.80
10057;DHT22;5068;51.286;7.518;2023-04-03T08:22:52;3.20;58.70
10057;DHT22;5068;51.286;7.518;2023-04-03T08:24:25;3.30;58.50
10057;DHT22;5068;51.286;7.518;2023-04-03T08:25:58;3.40;58.00
10057;DHT22;5068;51.286;7.518;2023-04-03T08:27:31;3.50;57.90
10057;DHT22;5068;51.286;7.518;2023-04-03T08:29:05;3.60;57.80
10057;DHT22;5068;51.286;7.518;2023-04-03T08:30:39;3.70;57.60
10057;DHT22;5068;51.286;7.518;2023-04-03T08:32:13;3.80;57.40
10057;DHT22;5068;51.286;7.518;2023-04-03T08:33:47;3.90;57.20
10057;DHT22;5068;51.286;7.518;2023-04-03T08:35:22;3.90;56.90
10057;DHT22;5068;51.286;7.518;2023-04-03T08:36:55;4.00;56.40
10057;DHT22;5068;51.286;7.518;2023-04-03T08:38:28;4.10;55.70
10057;DHT22;5068;51.286;7.518;2023-04-03T08:40:01;4.20;55.10
10057;DHT22;5068;51.286;7.518;2023-04-03T08:41:37;4.30;55.10
10057;DHT22;5068;51.286;7.518;2023-04-03T08:43:30;4.30;54.80
10057;DHT22;5068;51.286;7.518;2023-04-03T08:45:13;4.40;54.00
10057;DHT22;5068;51.286;7.518;2023-04-03T08:47:02;4.50;54.10
10057;DHT22;5068;51.286;7.518;2023-04-03T08:48:43;4.60;53.20
10057;DHT22;5068;51.286;7.518;2023-04-03T08:50:19;4.60;53.30
10057;DHT22;5068;51.286;7.518;2023-04-03T08:51:56;4.70;52.30
10057;DHT22;5068;51.286;7.518;2023-04-03T08:53:34;4.80;51.40
10057;DHT22;5068;51.286;7.518;2023-04-03T08:55:17;4.80;50.60
10057;DHT22;5068;51.286;7.518;2023-04-03T08:56:58;4.90;50.20
10057;DHT22;5068;51.286;7.518;2023-04-03T08:58:41;4.90;50.20
10057;DHT22;5068;51.286;7.518;2023-04-03T09:00:21;5.00;49.20
10057;DHT22;5068;51.286;7.518;2023-04-03T09:01:58;5.00;49.00
10057;DHT22;5068;51.286;7.518;2023-04-03T09:03:38;5.10;48.80
10057;DHT22;5068;51.286;7.518;2023-04-03T09:05:15;5.10;48.00
10057;DHT22;5068;51.286;7.518;2023-04-03T09:06:54;5.20;47.90
10057;DHT22;5068;51.286;7.518;2023-04-03T09:08:35;5.20;46.60
10057;DHT22;5068;51.286;7.518;2023-04-03T09:10:14;5.20;45.90
10057;DHT22;5068;51.286;7.518;2023-04-03T09:11:56;5.30;46.30
10057;DHT22;5068;51.286;7.518;2023-04-03T09:13:46;5.30;46.20
10057;DHT22;5068;51.286;7.518;2023-04-03T09:15:24;5.40;45.80
10057;DHT22;5068;51.286;7.518;2023-04-03T09:17:14;5.40;45.70
10057;DHT22;5068;51.286;7.518;2023-04-03T09:18:57;5.50;45.00
10057;DHT22;5068;51.286;7.518;2023-04-03T09:20:43;5.50;44.50
10057;DHT22;5068;51.286;7.518;2023-04-03T09:22:25;5.60;44.30
10057;DHT22;5068;51.286;7.518;2023-04-03T09:24:01;5.60;44.00
10057;DHT22;5068;51.286;7.518;2023-04-03T09:25:39;5.70;43.80
10057;DHT22;5068;51.286;7.518;2023-04-03T09:27:13;5.70;42.30
10057;DHT22;5068;51.286;7.518;2023-04-03T09:28:47;5.70;41.60
10057;DHT22;5068;51.286;7.518;2023-04-03T09:30:24;5.80;41.90
10057;DHT22;5068;51.286;7.518;2023-04-03T09:32:00;5.80;42.10
10057;DHT22;5068;51.286;7.518;2023-04-03T09:33:35;5.80;41.10
10057;DHT22;5068;51.286;7.518;2023-04-03T09:35:19;5.80;41.00
10057;DHT22;5068;51.286;7.518;2023-04-03T09:37:36;5.90;40.30
10057;DHT22;5068;51.286;7.518;2023-04-03T09:39:15;5.90;40.50
10057;DHT22;5068;51.286;7.518;2023-04-03T09:40:50;5.90;41.20
10057;DHT22;5068;51.286;7.518;2023-04-03T09:42:40;5.90;41.10
10057;DHT22;5068;51.286;7.518;2023-04-03T09:44:24;6.00;40.80
10057;DHT22;5068;51.286;7.518;2023-04-03T09:46:18;6.00;40.90
10057;DHT22;5068;51.286;7.518;2023-04-03T09:48:06;6.10;40.10
10057;DHT22;5068;51.286;7.518;2023-04-03T09:49:47;6.10;40.40
10057;DHT22;5068;51.286;7.518;2023-04-03T09:51:25;6.20;41.30
10057;DHT22;5068;51.286;7.518;2023-04-03T09:53:05;6.20;41.00
10057;DHT22;5068;51.286;7.518;2023-04-03T09:54:40;6.30;40.70
10057;DHT22;5068;51.286;7.518;2023-04-03T09:56:23;6.30;40.50
10057;DHT22;5068;51.286;7.518;2023-04-03T09:57:59;6.40;39.30
10057;DHT22;5068;51.286;7.518;2023-04-03T09:59:34;6.40;39.90
10057;DHT22;5068;51.286;7.518;2023-04-03T10:01:21;6.40;39.60
10057;DHT22;5068;51.286;7.518;2023-04-03T10:02:58;6.40;38.70
10057;DHT22;5068;51.286;7.518;2023-04-03T10:04:38;6.50;39.70
10057;DHT22;5068;51.286;7.518;2023-04-03T10:06:22;6.50;39.10
10057;DHT22;5068;51.286;7.518;2023-04-03T10:08:21;6.50;38.80
10057;DHT22;5068;51.286;7.518;2023-04-03T10:10:01;6.60;38.20
10057;DHT22;5068;51.286;7.518;2023-04-03T10:12:00;6.60;39.50
10057;DHT22;5068;51.286;7.518;2023-04-03T10:13:49;6.70;40.40
10057;DHT22;5068;51.286;7.518;2023-04-03T10:15:26;6.80;40.00
10057;DHT22;5068;51.286;7.518;2023-04-03T10:17:12;6.80;40.30
10057;DHT22;5068;51.286;7.518;2023-04-03T10:18:58;6.90;40.00
10057;DHT22;5068;51.286;7.518;2023-04-03T10:20:43;6.90;39.70